createdAt,value
2024-02-07T00:02:23.974Z,1.50
2024-02-07T00:06:06.187Z,1.25
2024-02-07T00:09:48.228Z,1.10
2024-02-07T00:13:30.371Z,2.60
2024-02-07T00:17:12.350Z,2.63
2024-02-07T00:21:56.567Z,3.85
2024-02-07T00:25:39.252Z,2.50
2024-02-07T00:29:21.298Z,1.60
2024-02-07T00:33:03.587Z,1.90
2024-02-07T00:36:45.680Z,2.95
2024-02-07T00:40:28.590Z,3.15
2024-02-07T00:44:10.713Z,4.55
2024-02-07T00:47:53.740Z,5.35
2024-02-07T00:51:35.850Z,1.95
2024-02-07T00:55:18.257Z,4.82
2024-02-07T00:59:00.256Z,2.60
2024-02-07T01:02:43.004Z,3.28
2024-02-07T01:06:24.998Z,4.32
2024-02-07T01:10:07.709Z,3.25
2024-02-07T01:13:50.636Z,6.13
2024-02-07T01:17:32.788Z,3.95
2024-02-07T01:21:14.876Z,3.13
2024-02-07T01:24:56.877Z,3.25
2024-02-07T01:28:57.429Z,2.30
2024-02-07T01:32:43.956Z,3.58
2024-02-07T01:36:26.233Z,1.67
2024-02-07T01:40:14.188Z,3.65
2024-02-07T01:43:56.547Z,2.30
2024-02-07T01:47:38.779Z,3.88
2024-02-07T01:51:21.094Z,3.00
2024-02-07T01:55:05.025Z,1.63
2024-02-07T01:58:47.498Z,2.78
2024-02-07T02:02:29.634Z,3.05
2024-02-07T02:06:12.034Z,3.67
2024-02-07T02:09:54.080Z,1.95
2024-02-07T02:13:36.552Z,1.85
2024-02-07T02:17:18.569Z,2.90
2024-02-07T02:21:01.987Z,1.80
2024-02-07T02:25:17.064Z,3.38
2024-02-07T02:29:21.633Z,2.20
2024-02-07T02:33:10.947Z,1.33
2024-02-07T02:36:53.545Z,2.33
2024-02-07T02:40:35.679Z,1.73
2024-02-07T02:44:17.938Z,2.25
2024-02-07T02:48:00.207Z,2.30
2024-02-07T02:51:42.479Z,2.30
2024-02-07T02:55:24.513Z,3.70
2024-02-07T02:59:07.128Z,3.92
2024-02-07T03:02:49.147Z,2.38
2024-02-07T03:06:39.273Z,2.28
2024-02-07T03:10:27.386Z,2.13
2024-02-07T03:14:09.423Z,1.80
2024-02-07T03:17:51.427Z,3.72
2024-02-07T03:21:33.539Z,1.70
2024-02-07T03:25:18.474Z,2.33
2024-02-07T03:29:00.833Z,3.25
2024-02-07T03:32:43.923Z,3.42
2024-02-07T03:36:28.064Z,2.08
2024-02-07T03:40:16.729Z,1.95
2024-02-07T03:44:00.088Z,2.30
2024-02-07T03:47:42.705Z,1.83
2024-02-07T03:51:28.963Z,2.17
2024-02-07T03:55:12.076Z,4.57
2024-02-07T03:58:54.224Z,3.63
2024-02-07T04:02:39.820Z,6.30
2024-02-07T04:06:22.333Z,2.65
2024-02-07T04:10:05.580Z,3.60
2024-02-07T04:13:48.275Z,3.67
2024-02-07T04:17:48.961Z,3.13
2024-02-07T04:21:49.695Z,3.13
2024-02-07T04:25:50.361Z,5.43
2024-02-07T04:29:51.041Z,4.00
2024-02-07T04:33:51.707Z,3.13
2024-02-07T04:37:52.477Z,4.75
2024-02-07T04:41:53.066Z,2.95
2024-02-07T04:45:53.704Z,4.45
2024-02-07T04:49:54.278Z,7.10
2024-02-07T04:53:54.905Z,9.40
2024-02-07T04:57:55.562Z,3.53
2024-02-07T05:01:56.021Z,4.88
2024-02-07T05:05:56.760Z,5.38
2024-02-07T05:09:57.428Z,6.22
2024-02-07T05:13:57.750Z,8.75
2024-02-07T05:17:39.995Z,7.32
2024-02-07T05:21:22.025Z,8.80
2024-02-07T05:25:05.453Z,5.97
2024-02-07T05:28:50.202Z,7.00
2024-02-07T05:32:32.627Z,6.65
2024-02-07T05:36:14.790Z,7.13
2024-02-07T05:39:56.784Z,6.78
2024-02-07T05:43:38.729Z,6.15
2024-02-07T05:47:21.555Z,8.35
2024-02-07T05:51:03.994Z,6.82
2024-02-07T05:54:46.394Z,7.15
2024-02-07T05:58:28.372Z,5.40
2024-02-07T06:02:10.487Z,6.28
2024-02-07T06:05:54.425Z,4.50
2024-02-07T06:09:37.038Z,13.50
2024-02-07T06:13:20.089Z,6.75
2024-02-07T06:17:02.122Z,4.68
2024-02-07T06:20:44.665Z,9.25
2024-02-07T06:24:26.746Z,7.90
2024-02-07T06:28:08.708Z,7.85
2024-02-07T06:31:50.898Z,5.40
2024-02-07T06:35:32.891Z,7.35
2024-02-07T06:39:14.913Z,6.25
2024-02-07T06:42:57.747Z,6.03
2024-02-07T06:46:43.870Z,8.38
2024-02-07T06:50:25.959Z,6.55
2024-02-07T06:54:08.016Z,4.05
2024-02-07T06:57:50.060Z,5.43
2024-02-07T07:01:32.313Z,5.95
2024-02-07T07:05:14.355Z,4.85
2024-02-07T07:08:56.368Z,6.25
2024-02-07T07:12:39.203Z,4.25
2024-02-07T07:16:21.791Z,5.57
2024-02-07T07:20:04.179Z,5.18
2024-02-07T07:23:46.310Z,6.82
2024-02-07T07:27:28.382Z,7.15
2024-02-07T07:31:13.090Z,3.72
2024-02-07T07:34:55.327Z,4.53
2024-02-07T07:38:38.985Z,5.90
2024-02-07T07:42:20.981Z,4.97
2024-02-07T07:46:03.553Z,3.70
2024-02-07T07:49:45.588Z,4.88
2024-02-07T07:53:27.648Z,6.00
2024-02-07T07:57:09.710Z,4.30
2024-02-07T08:00:52.349Z,3.58
2024-02-07T08:04:34.549Z,4.20
2024-02-07T08:08:16.859Z,4.07
2024-02-07T08:11:59.013Z,4.55
2024-02-07T08:15:41.049Z,3.90
2024-02-07T08:19:23.150Z,3.15
2024-02-07T08:23:05.201Z,3.15
2024-02-07T08:26:50.088Z,2.67
2024-02-07T08:30:32.309Z,3.33
2024-02-07T08:34:15.400Z,5.45
2024-02-07T08:38:00.641Z,4.68
2024-02-07T08:41:42.839Z,4.88
2024-02-07T08:45:24.883Z,6.25
2024-02-07T08:49:07.021Z,4.47
2024-02-07T08:52:49.185Z,3.05
2024-02-07T08:56:31.473Z,4.85
2024-02-07T09:00:14.158Z,4.95
2024-02-07T09:03:56.224Z,2.95
2024-02-07T09:07:38.315Z,3.28
2024-02-07T09:11:20.437Z,5.47
2024-02-07T09:15:02.480Z,4.15
2024-02-07T09:18:44.581Z,10.43
2024-02-07T09:22:26.724Z,4.28
2024-02-07T09:26:08.818Z,3.30
2024-02-07T09:29:56.483Z,4.65
2024-02-07T09:33:41.705Z,3.85
2024-02-07T09:37:23.820Z,5.00
2024-02-07T09:41:08.851Z,2.22
2024-02-07T09:44:52.744Z,4.00
2024-02-07T09:48:35.207Z,4.38
2024-02-07T09:52:19.238Z,4.88
2024-02-07T09:56:01.305Z,3.13
2024-02-07T09:59:43.771Z,4.57
2024-02-07T10:03:26.333Z,5.70
2024-02-07T10:07:13.524Z,6.30
2024-02-07T10:10:55.748Z,4.00
2024-02-07T10:14:38.337Z,2.90
2024-02-07T10:18:20.498Z,3.92
2024-02-07T10:22:20.840Z,7.93
2024-02-07T10:26:03.050Z,7.10
2024-02-07T10:29:45.223Z,2.88
2024-02-07T10:33:43.145Z,4.07
2024-02-07T10:37:26.273Z,4.00
2024-02-07T10:41:08.902Z,4.35
2024-02-07T10:45:02.159Z,4.50
2024-02-07T10:48:44.371Z,2.83
2024-02-07T10:52:26.733Z,4.88
2024-02-07T10:56:14.515Z,4.53
2024-02-07T10:59:57.688Z,5.25
2024-02-07T11:03:40.362Z,6.35
2024-02-07T11:07:22.990Z,5.78
2024-02-07T11:11:05.734Z,6.47
2024-02-07T11:14:49.416Z,3.42
2024-02-07T11:18:31.715Z,5.18
2024-02-07T11:22:28.838Z,4.65
2024-02-07T11:29:55.557Z,4.13
2024-02-07T11:33:38.618Z,5.15
2024-02-07T11:37:22.956Z,6.13
2024-02-07T11:41:06.849Z,5.05
2024-02-07T11:44:57.150Z,6.03
2024-02-07T11:48:43.567Z,5.97
2024-02-07T11:52:33.103Z,3.42
2024-02-07T11:56:21.634Z,4.95
2024-02-07T12:00:06.542Z,8.25
2024-02-07T12:03:56.331Z,8.50
2024-02-07T12:07:41.954Z,5.05
2024-02-07T12:11:23.987Z,4.82
2024-02-07T12:15:06.866Z,4.90
2024-02-07T12:18:49.146Z,5.13
2024-02-07T12:22:33.096Z,9.35
2024-02-07T12:26:15.201Z,4.05
2024-02-07T12:29:59.366Z,4.50
2024-02-07T12:33:41.525Z,5.13
2024-02-07T12:37:23.625Z,6.57
2024-02-07T12:41:08.101Z,5.25
2024-02-07T12:44:50.809Z,7.25
2024-02-07T12:48:34.335Z,6.10
2024-02-07T12:52:17.697Z,7.95
2024-02-07T12:55:59.841Z,9.23
2024-02-07T12:59:42.517Z,6.22
2024-02-07T13:03:24.548Z,6.10
2024-02-07T13:07:10.359Z,8.73
2024-02-07T13:10:52.616Z,9.05
2024-02-07T13:14:34.840Z,4.50
2024-02-07T13:18:17.387Z,4.80
2024-02-07T13:21:59.528Z,8.05
2024-02-07T13:25:44.719Z,7.90
2024-02-07T13:29:26.813Z,6.60
2024-02-07T13:33:08.779Z,5.93
2024-02-07T13:36:50.795Z,10.05
2024-02-07T13:40:32.855Z,6.90
2024-02-07T13:44:14.889Z,9.48
2024-02-07T13:47:57.290Z,6.60
2024-02-07T13:51:39.466Z,9.10
2024-02-07T13:55:21.558Z,7.95
2024-02-07T13:59:03.759Z,4.97
2024-02-07T14:02:45.829Z,6.53
2024-02-07T14:06:28.019Z,6.78
2024-02-07T14:10:10.548Z,5.85
2024-02-07T14:13:52.840Z,8.85
2024-02-07T14:17:35.740Z,5.18
2024-02-07T14:21:17.824Z,6.32
2024-02-07T14:24:59.870Z,4.55
2024-02-07T14:28:41.897Z,4.97
2024-02-07T14:32:23.989Z,8.13
2024-02-07T14:36:07.378Z,4.28
2024-02-07T14:39:49.359Z,7.03
2024-02-07T14:43:31.377Z,6.72
2024-02-07T14:47:16.057Z,5.43
2024-02-07T14:50:58.284Z,8.00
2024-02-07T14:54:40.291Z,8.52
2024-02-07T14:58:22.305Z,5.30
2024-02-07T15:02:05.378Z,5.75
2024-02-07T15:05:47.868Z,7.55
2024-02-07T15:09:30.009Z,6.30
2024-02-07T15:13:12.467Z,8.00
2024-02-07T15:16:54.776Z,5.75
2024-02-07T15:20:36.831Z,6.47
2024-02-07T15:24:18.909Z,6.18
2024-02-07T15:28:01.126Z,3.45
2024-02-07T15:31:43.152Z,4.72
2024-02-07T15:35:25.227Z,9.55
2024-02-07T15:39:07.296Z,4.38
2024-02-07T15:42:49.575Z,4.85
2024-02-07T15:46:31.573Z,3.97
2024-02-07T15:50:14.594Z,4.60
2024-02-07T15:53:56.606Z,5.43
2024-02-07T15:57:38.625Z,7.32
2024-02-07T16:01:30.129Z,7.50
2024-02-07T16:05:18.537Z,5.57
2024-02-07T16:09:00.625Z,6.78
2024-02-07T16:12:42.995Z,6.75
2024-02-07T16:16:25.086Z,5.63
2024-02-07T16:20:12.098Z,5.75
2024-02-07T16:23:54.163Z,5.95
2024-02-07T16:27:36.277Z,6.25
2024-02-07T16:31:18.649Z,4.38
2024-02-07T16:35:01.029Z,6.13
2024-02-07T16:38:43.145Z,7.03
2024-02-07T16:42:25.130Z,5.63
2024-02-07T16:46:07.304Z,7.20
2024-02-07T16:49:49.333Z,6.80
2024-02-07T16:53:31.289Z,10.63
2024-02-07T16:57:13.310Z,6.63
2024-02-07T17:00:55.367Z,7.65
2024-02-07T17:04:39.267Z,11.88
2024-02-07T17:08:21.199Z,7.57
2024-02-07T17:12:03.293Z,4.68
2024-02-07T17:15:45.256Z,6.22
2024-02-07T17:19:27.416Z,6.45
2024-02-07T17:23:09.633Z,6.53
2024-02-07T17:26:51.729Z,5.93
2024-02-07T17:30:37.186Z,7.13
2024-02-07T17:34:19.984Z,6.93
2024-02-07T17:38:02.077Z,11.30
2024-02-07T17:41:44.115Z,7.90
2024-02-07T17:45:26.980Z,10.00
2024-02-07T17:49:09.152Z,6.88
2024-02-07T17:52:51.700Z,8.40
2024-02-07T17:56:37.283Z,9.80
2024-02-07T18:11:02.093Z,10.85
2024-02-07T18:25:14.372Z,8.23
2024-02-07T18:29:32.362Z,11.77
2024-02-07T18:33:14.380Z,11.70
2024-02-07T18:36:56.510Z,7.93
2024-02-07T18:40:38.538Z,9.85
2024-02-07T18:44:21.025Z,9.95
2024-02-07T18:48:05.225Z,8.73
2024-02-07T18:51:47.404Z,10.00
2024-02-07T18:55:29.418Z,8.52
2024-02-07T18:59:11.616Z,10.02
2024-02-07T19:02:53.609Z,9.63
2024-02-07T19:06:35.862Z,9.02
2024-02-07T19:10:17.902Z,11.85
2024-02-07T19:14:01.014Z,9.82
2024-02-07T19:17:43.082Z,10.38
2024-02-07T19:21:26.964Z,10.73
2024-02-07T19:25:09.173Z,13.50
2024-02-07T19:28:51.192Z,6.43
2024-02-07T19:32:33.169Z,16.73
2024-02-07T19:36:15.211Z,9.70
2024-02-07T19:39:57.177Z,13.63
2024-02-07T19:43:39.990Z,15.50
2024-02-07T19:47:22.088Z,14.15
2024-02-07T19:51:09.535Z,10.25
2024-02-07T19:54:51.522Z,13.77
2024-02-07T19:58:33.660Z,10.38
2024-02-07T20:02:16.063Z,11.25
2024-02-07T20:05:58.861Z,13.32
2024-02-07T20:09:40.889Z,10.70
2024-02-07T20:13:22.988Z,10.00
2024-02-07T20:17:05.288Z,12.32
2024-02-07T20:20:47.623Z,13.25
2024-02-07T20:24:30.353Z,13.30
2024-02-07T20:28:12.442Z,11.68
2024-02-07T20:31:54.439Z,12.10
2024-02-07T20:35:37.724Z,13.52
2024-02-07T20:39:19.760Z,10.43
2024-02-07T20:43:02.636Z,12.63
2024-02-07T20:46:46.153Z,10.48
2024-02-07T20:50:29.623Z,15.63
2024-02-07T20:54:11.813Z,13.43
2024-02-07T20:57:56.117Z,16.42
2024-02-07T21:01:38.488Z,10.77
2024-02-07T21:05:21.116Z,20.70
2024-02-07T21:09:07.526Z,14.82
2024-02-07T21:12:49.598Z,16.20
2024-02-07T21:16:31.620Z,14.15
2024-02-07T21:20:15.798Z,16.45
2024-02-07T21:23:58.098Z,21.48
2024-02-07T21:27:40.165Z,15.75
2024-02-07T21:31:22.200Z,16.50
2024-02-07T21:35:06.970Z,15.65
2024-02-07T21:38:49.108Z,18.75
2024-02-07T21:42:31.188Z,18.58
2024-02-07T21:46:13.344Z,13.77
2024-02-07T21:49:55.435Z,16.10
2024-02-07T21:53:37.525Z,15.65
2024-02-07T21:57:19.545Z,15.10
2024-02-07T22:01:01.596Z,13.20
2024-02-07T22:04:43.851Z,13.05
2024-02-07T22:08:25.985Z,13.40
2024-02-07T22:12:08.698Z,13.55
2024-02-07T22:15:52.563Z,10.90
2024-02-07T22:19:35.023Z,12.45
2024-02-07T22:23:17.176Z,13.77
2024-02-07T22:26:59.440Z,11.23
2024-02-07T22:30:41.468Z,13.30
2024-02-07T22:34:23.585Z,11.98
2024-02-07T22:38:06.290Z,11.25
2024-02-07T22:41:48.390Z,13.45
2024-02-07T22:45:30.488Z,14.80
2024-02-07T22:49:12.607Z,13.40
2024-02-07T22:52:54.642Z,15.10
2024-02-07T22:56:36.625Z,14.45
2024-02-07T23:00:18.930Z,16.63
2024-02-07T23:04:06.295Z,12.90
2024-02-07T23:07:50.658Z,14.00
2024-02-07T23:11:35.731Z,14.10
2024-02-07T23:15:17.769Z,16.25
2024-02-07T23:19:00.017Z,13.43
2024-02-07T23:22:41.975Z,15.23
2024-02-07T23:26:24.001Z,15.65
2024-02-07T23:30:06.625Z,17.70
2024-02-07T23:33:48.663Z,17.52
2024-02-07T23:37:30.743Z,18.80
2024-02-07T23:41:12.959Z,19.73
2024-02-07T23:44:55.386Z,17.55
2024-02-07T23:48:37.470Z,20.85
2024-02-07T23:52:19.435Z,20.30
2024-02-07T23:56:01.572Z,19.17
2024-02-07T23:59:44.092Z,22.38
